createdAt,value
2023-04-27T00:00:11.842Z,5.20
2023-04-27T00:02:39.987Z,3.60
2023-04-27T00:05:08.741Z,4.13
2023-04-27T00:07:37.287Z,3.45
2023-04-27T00:10:07.311Z,3.88
2023-04-27T00:12:35.653Z,2.58
2023-04-27T00:15:03.889Z,3.88
2023-04-27T00:17:32.255Z,4.18
2023-04-27T00:20:00.640Z,3.95
2023-04-27T00:22:28.739Z,3.17
2023-04-27T00:24:56.837Z,3.13
2023-04-27T00:27:26.260Z,6.07
2023-04-27T00:29:54.280Z,1.92
2023-04-27T00:32:22.314Z,2.17
2023-04-27T00:34:50.649Z,2.45
2023-04-27T00:37:18.796Z,3.33
2023-04-27T00:39:47.620Z,4.70
2023-04-27T00:42:19.535Z,3.95
2023-04-27T00:44:49.329Z,3.17
2023-04-27T00:47:18.050Z,3.08
2023-04-27T00:49:46.788Z,4.68
2023-04-27T00:52:15.290Z,2.78
2023-04-27T00:54:43.970Z,3.20
2023-04-27T00:57:12.119Z,5.07
2023-04-27T00:59:40.473Z,5.90
2023-04-27T01:02:10.972Z,3.05
2023-04-27T01:04:40.086Z,2.70
2023-04-27T01:07:08.199Z,2.47
2023-04-27T01:09:36.667Z,3.03
2023-04-27T01:12:05.033Z,4.20
2023-04-27T01:14:33.146Z,2.65
2023-04-27T01:17:01.254Z,3.42
2023-04-27T01:19:30.864Z,4.00
2023-04-27T01:21:58.857Z,3.97
2023-04-27T01:24:28.336Z,4.05
2023-04-27T01:26:56.355Z,2.55
2023-04-27T01:29:24.446Z,2.30
2023-04-27T01:31:52.518Z,3.17
2023-04-27T01:34:20.833Z,2.08
2023-04-27T01:36:49.077Z,4.90
2023-04-27T01:39:17.302Z,5.60
2023-04-27T01:41:46.621Z,4.65
2023-04-27T01:44:14.784Z,4.68
2023-04-27T01:46:43.124Z,4.78
2023-04-27T01:49:11.302Z,3.00
2023-04-27T01:51:39.445Z,5.50
2023-04-27T01:54:07.720Z,4.35
2023-04-27T01:56:37.551Z,2.35
2023-04-27T01:59:07.042Z,4.68
2023-04-27T02:01:35.259Z,5.72
2023-04-27T02:04:04.749Z,5.25
2023-04-27T02:06:33.104Z,6.18
2023-04-27T02:09:01.386Z,4.50
2023-04-27T02:11:29.452Z,6.40
2023-04-27T02:13:57.609Z,10.88
2023-04-27T02:16:33.300Z,8.48
2023-04-27T02:19:03.206Z,4.72
2023-04-27T02:21:31.823Z,7.95
2023-04-27T02:23:59.971Z,6.28
2023-04-27T02:26:29.527Z,6.38
2023-04-27T02:28:59.316Z,7.43
2023-04-27T02:31:28.270Z,7.63
2023-04-27T02:33:57.693Z,7.88
2023-04-27T02:36:27.916Z,7.43
2023-04-27T02:38:56.586Z,9.32
2023-04-27T02:41:27.705Z,6.95
2023-04-27T02:43:55.818Z,8.73
2023-04-27T02:46:24.708Z,8.48
2023-04-27T02:48:56.317Z,7.68
2023-04-27T02:51:26.162Z,7.95
2023-04-27T02:53:54.739Z,8.50
2023-04-27T02:56:23.292Z,10.18
2023-04-27T02:58:51.650Z,6.43
2023-04-27T03:01:19.914Z,9.05
2023-04-27T03:03:48.884Z,10.88
2023-04-27T03:06:17.112Z,11.20
2023-04-27T03:08:46.482Z,12.63
2023-04-27T03:11:14.545Z,6.90
2023-04-27T03:13:42.878Z,9.20
2023-04-27T03:16:12.344Z,8.75
2023-04-27T03:18:41.095Z,8.65
2023-04-27T03:21:10.096Z,7.75
2023-04-27T03:23:38.217Z,10.20
2023-04-27T03:26:09.456Z,12.68
2023-04-27T03:28:37.792Z,8.30
2023-04-27T03:31:07.471Z,8.57
2023-04-27T03:33:36.341Z,7.10
2023-04-27T03:36:05.698Z,13.35
2023-04-27T03:38:35.543Z,11.40
2023-04-27T03:41:03.900Z,10.52
2023-04-27T03:43:33.295Z,15.30
2023-04-27T03:46:01.395Z,11.02
2023-04-27T03:48:29.564Z,11.20
2023-04-27T03:50:57.734Z,11.88
2023-04-27T03:53:25.783Z,14.00
2023-04-27T03:55:53.966Z,13.05
2023-04-27T03:58:22.054Z,14.52
2023-04-27T04:01:11.190Z,9.55
2023-04-27T04:03:39.995Z,14.20
2023-04-27T04:06:09.861Z,9.27
2023-04-27T04:08:38.294Z,14.00
2023-04-27T04:11:06.397Z,11.55
2023-04-27T04:13:36.757Z,12.63
2023-04-27T04:16:06.285Z,14.10
2023-04-27T04:18:36.343Z,14.60
2023-04-27T04:21:05.572Z,14.23
2023-04-27T04:23:34.004Z,12.85
2023-04-27T04:26:02.278Z,7.63
2023-04-27T04:28:34.702Z,12.07
2023-04-27T04:31:04.992Z,9.73
2023-04-27T04:33:33.230Z,10.88
2023-04-27T04:36:04.609Z,14.75
2023-04-27T04:38:33.010Z,10.27
2023-04-27T04:41:02.399Z,12.43
2023-04-27T04:43:33.359Z,12.57
2023-04-27T04:46:05.210Z,9.65
2023-04-27T04:48:33.356Z,13.48
2023-04-27T04:51:02.740Z,15.65
2023-04-27T04:53:30.809Z,8.60
2023-04-27T04:55:58.942Z,10.02
2023-04-27T04:58:27.634Z,12.43
2023-04-27T05:00:55.731Z,14.30
2023-04-27T05:03:23.895Z,13.70
2023-04-27T05:05:52.102Z,14.15
2023-04-27T05:08:21.469Z,11.63
2023-04-27T05:10:51.512Z,10.25
2023-04-27T05:13:19.570Z,11.02
2023-04-27T05:15:47.731Z,11.32
2023-04-27T05:18:15.810Z,13.40
2023-04-27T05:20:43.930Z,10.80
2023-04-27T05:23:12.266Z,12.23
2023-04-27T05:25:42.851Z,9.30
2023-04-27T05:28:11.865Z,11.02
2023-04-27T05:30:40.011Z,13.25
2023-04-27T05:33:08.107Z,10.77
2023-04-27T05:35:36.531Z,11.07
2023-04-27T05:38:04.560Z,10.13
2023-04-27T05:40:32.686Z,11.65
2023-04-27T05:43:05.375Z,11.07
2023-04-27T05:45:33.728Z,11.33
2023-04-27T05:48:01.861Z,10.93
2023-04-27T05:50:30.022Z,12.93
2023-04-27T05:52:58.082Z,10.48
2023-04-27T05:55:26.297Z,10.60
2023-04-27T05:58:07.096Z,15.98
2023-04-27T06:00:38.480Z,13.43
2023-04-27T06:03:06.809Z,10.70
2023-04-27T06:05:35.637Z,13.13
2023-04-27T06:08:03.792Z,11.43
2023-04-27T06:10:31.923Z,13.40
2023-04-27T06:12:59.970Z,10.25
2023-04-27T06:15:28.272Z,13.10
2023-04-27T06:17:57.841Z,13.05
2023-04-27T06:20:26.373Z,12.30
2023-04-27T06:22:54.476Z,9.20
2023-04-27T06:25:26.658Z,14.52
2023-04-27T06:27:55.615Z,14.80
2023-04-27T06:30:24.111Z,9.93
2023-04-27T06:32:53.194Z,15.90
2023-04-27T06:35:23.199Z,11.68
2023-04-27T06:37:51.373Z,12.57
2023-04-27T06:40:19.612Z,14.45
2023-04-27T06:42:47.731Z,15.30
2023-04-27T06:45:15.972Z,10.05
2023-04-27T06:47:44.127Z,11.65
2023-04-27T06:50:12.257Z,10.82
2023-04-27T06:52:41.775Z,10.98
2023-04-27T06:55:10.240Z,16.58
2023-04-27T06:57:38.510Z,18.92
2023-04-27T07:00:07.632Z,16.65
2023-04-27T07:02:35.870Z,14.07
2023-04-27T07:05:04.149Z,10.45
2023-04-27T07:07:32.320Z,16.90
2023-04-27T07:10:01.690Z,11.43
2023-04-27T07:12:29.979Z,13.30
2023-04-27T07:14:58.220Z,12.75
2023-04-27T07:17:26.768Z,11.32
2023-04-27T07:19:54.841Z,14.38
2023-04-27T07:22:23.209Z,13.45
2023-04-27T07:24:51.578Z,17.00
2023-04-27T07:27:21.530Z,14.60
2023-04-27T07:29:49.664Z,13.85
2023-04-27T07:32:17.816Z,12.70
2023-04-27T07:34:53.392Z,16.42
2023-04-27T07:37:22.719Z,18.77
2023-04-27T07:39:52.022Z,10.90
2023-04-27T07:42:23.645Z,11.55
2023-04-27T07:44:52.600Z,13.27
2023-04-27T07:47:21.971Z,20.52
2023-04-27T07:49:50.254Z,12.77
2023-04-27T07:52:18.302Z,13.90
2023-04-27T07:54:46.480Z,12.35
2023-04-27T07:57:14.624Z,14.50
2023-04-27T07:59:44.066Z,8.07
2023-04-27T08:02:19.641Z,13.07
2023-04-27T08:04:49.527Z,17.98
2023-04-27T08:07:18.707Z,13.07
2023-04-27T08:09:47.955Z,16.13
2023-04-27T08:12:16.285Z,13.93
2023-04-27T08:14:45.726Z,15.80
2023-04-27T08:17:13.874Z,14.50
2023-04-27T08:19:42.333Z,17.40
2023-04-27T08:22:10.576Z,11.95
2023-04-27T08:24:38.699Z,14.43
2023-04-27T08:27:07.114Z,15.27
2023-04-27T08:29:35.294Z,10.32
2023-04-27T08:32:05.728Z,14.90
2023-04-27T08:34:33.898Z,14.90
2023-04-27T08:37:03.448Z,12.07
2023-04-27T08:39:31.783Z,11.95
2023-04-27T08:41:59.999Z,14.95
2023-04-27T08:44:28.376Z,17.85
2023-04-27T08:46:56.507Z,14.85
2023-04-27T08:49:25.907Z,17.40
2023-04-27T08:51:53.962Z,14.50
2023-04-27T08:54:22.179Z,17.55
2023-04-27T08:56:50.398Z,13.90
2023-04-27T08:59:18.794Z,19.50
2023-04-27T09:01:49.009Z,13.32
2023-04-27T09:04:19.892Z,16.13
2023-04-27T09:06:50.210Z,15.57
2023-04-27T09:09:24.513Z,13.73
2023-04-27T09:11:52.789Z,12.90
2023-04-27T09:14:22.641Z,17.75
2023-04-27T09:16:57.645Z,13.95
2023-04-27T09:19:26.541Z,13.15
2023-04-27T09:22:06.276Z,15.65
2023-04-27T09:24:34.777Z,12.35
2023-04-27T09:27:05.159Z,13.63
2023-04-27T09:29:34.633Z,17.63
2023-04-27T09:32:03.576Z,13.23
2023-04-27T09:34:50.448Z,14.25
2023-04-27T09:37:20.642Z,13.98
2023-04-27T09:39:49.925Z,15.65
2023-04-27T09:42:18.234Z,12.60
2023-04-27T09:44:46.370Z,11.63
2023-04-27T09:47:15.643Z,11.57
2023-04-27T09:49:43.815Z,14.98
2023-04-27T09:52:12.123Z,15.93
2023-04-27T09:54:42.267Z,18.52
2023-04-27T09:57:26.597Z,12.57
2023-04-27T10:00:10.977Z,15.35
2023-04-27T10:02:53.538Z,21.02
2023-04-27T10:05:39.542Z,16.15
2023-04-27T10:08:08.223Z,10.75
2023-04-27T10:10:49.194Z,16.45
2023-04-27T10:13:25.075Z,17.42
2023-04-27T10:15:53.572Z,13.40
2023-04-27T10:18:28.789Z,17.65
2023-04-27T10:20:56.994Z,15.52
2023-04-27T10:23:26.351Z,13.35
2023-04-27T10:25:57.337Z,11.93
2023-04-27T10:28:25.579Z,13.57
2023-04-27T10:30:53.733Z,13.88
2023-04-27T10:33:24.211Z,13.88
2023-04-27T10:36:00.409Z,14.48
2023-04-27T10:38:30.866Z,11.18
2023-04-27T10:41:02.402Z,12.38
2023-04-27T10:43:34.281Z,11.70
2023-04-27T10:46:27.272Z,9.52
2023-04-27T10:48:56.923Z,13.40
2023-04-27T10:51:26.949Z,12.73
2023-04-27T10:53:55.304Z,14.98
2023-04-27T10:56:24.992Z,14.45
2023-04-27T10:58:53.200Z,10.27
2023-04-27T11:01:27.367Z,14.77
2023-04-27T11:03:57.821Z,14.18
2023-04-27T11:06:28.217Z,14.75
2023-04-27T11:08:56.674Z,15.57
2023-04-27T11:11:26.454Z,10.93
2023-04-27T11:13:55.751Z,14.82
2023-04-27T11:16:24.407Z,13.90
2023-04-27T11:18:52.639Z,13.63
2023-04-27T11:21:22.168Z,15.30
2023-04-27T11:23:50.421Z,16.75
2023-04-27T11:26:20.201Z,14.75
2023-04-27T11:28:59.865Z,13.57
2023-04-27T11:31:28.942Z,12.63
2023-04-27T11:33:57.067Z,12.38
2023-04-27T11:36:26.723Z,16.42
2023-04-27T11:39:00.044Z,16.77
2023-04-27T11:41:35.799Z,14.27
2023-04-27T11:44:09.794Z,12.55
2023-04-27T11:46:38.616Z,14.38
2023-04-27T11:49:08.859Z,16.70
2023-04-27T11:51:37.776Z,15.90
2023-04-27T11:54:07.485Z,16.70
2023-04-27T11:56:37.512Z,14.55
2023-04-27T11:59:06.270Z,20.73
2023-04-27T12:01:38.483Z,19.40
2023-04-27T12:04:07.014Z,20.60
2023-04-27T12:06:35.480Z,15.43
2023-04-27T12:09:11.812Z,14.93
2023-04-27T12:11:43.100Z,13.00
2023-04-27T12:14:11.886Z,10.90
2023-04-27T12:16:41.446Z,13.60
2023-04-27T12:19:09.689Z,16.42
2023-04-27T12:21:37.847Z,16.30
2023-04-27T12:24:06.236Z,15.60
2023-04-27T12:26:34.374Z,13.77
2023-04-27T12:29:04.429Z,13.90
2023-04-27T12:31:32.857Z,9.98
2023-04-27T12:34:02.430Z,9.98
2023-04-27T12:36:30.660Z,12.95
2023-04-27T12:39:01.779Z,13.40
2023-04-27T12:41:29.929Z,13.15
2023-04-27T12:43:58.063Z,11.40
2023-04-27T12:46:26.339Z,9.68
2023-04-27T12:48:57.120Z,10.13
2023-04-27T12:51:29.403Z,9.65
2023-04-27T12:53:59.300Z,12.32
2023-04-27T12:56:28.992Z,10.13
2023-04-27T12:58:57.108Z,12.35
2023-04-27T13:01:27.762Z,11.82
2023-04-27T13:03:57.470Z,16.92
2023-04-27T13:06:27.018Z,11.52
2023-04-27T13:08:55.260Z,11.82
2023-04-27T13:11:24.178Z,11.85
2023-04-27T13:13:52.361Z,14.75
2023-04-27T13:16:22.688Z,11.60
2023-04-27T13:18:52.284Z,12.02
2023-04-27T13:21:20.541Z,9.35
2023-04-27T13:23:51.165Z,11.93
2023-04-27T13:26:19.235Z,14.60
2023-04-27T13:28:47.296Z,13.15
2023-04-27T13:31:15.870Z,12.32
2023-04-27T13:33:45.192Z,12.50
2023-04-27T13:36:14.524Z,10.75
2023-04-27T13:38:42.630Z,10.02
2023-04-27T13:41:12.058Z,13.05
2023-04-27T13:43:40.387Z,12.70
2023-04-27T13:46:08.585Z,11.40
2023-04-27T13:48:36.846Z,13.18
2023-04-27T13:51:05.104Z,9.43
2023-04-27T13:53:33.147Z,10.55
2023-04-27T13:56:01.305Z,11.07
2023-04-27T13:58:32.683Z,10.48
2023-04-27T14:01:01.027Z,10.73
2023-04-27T14:03:29.705Z,9.30
2023-04-27T14:05:58.137Z,9.57
2023-04-27T14:08:26.755Z,8.25
2023-04-27T14:10:55.193Z,7.95
2023-04-27T14:13:23.241Z,11.80
2023-04-27T14:15:52.670Z,9.85
2023-04-27T14:18:20.828Z,11.13
2023-04-27T14:20:48.969Z,11.85
2023-04-27T14:23:17.098Z,10.18
2023-04-27T14:25:45.218Z,10.85
2023-04-27T14:28:14.732Z,12.23
2023-04-27T14:30:42.932Z,9.82
2023-04-27T14:33:12.330Z,10.73
2023-04-27T14:35:40.988Z,11.57
2023-04-27T14:38:09.102Z,12.60
2023-04-27T14:40:37.270Z,9.85
2023-04-27T14:43:05.368Z,8.20
2023-04-27T14:45:44.065Z,10.85
2023-04-27T14:48:17.410Z,9.68
2023-04-27T14:50:45.756Z,10.43
2023-04-27T14:53:13.834Z,11.35
2023-04-27T14:55:44.343Z,11.15
2023-04-27T14:58:12.459Z,11.25
2023-04-27T15:00:41.271Z,13.02
2023-04-27T15:03:09.919Z,10.50
2023-04-27T15:05:39.402Z,9.95
2023-04-27T15:08:07.463Z,13.77
2023-04-27T15:10:35.573Z,11.02
2023-04-27T15:13:03.723Z,10.60
2023-04-27T15:15:31.890Z,11.75
2023-04-27T15:18:00.145Z,8.63
2023-04-27T15:20:28.479Z,8.85
2023-04-27T15:22:57.922Z,8.00
2023-04-27T15:25:26.077Z,11.35
2023-04-27T15:27:54.164Z,9.82
2023-04-27T15:30:22.289Z,8.55
2023-04-27T15:32:50.559Z,7.68
2023-04-27T15:35:18.809Z,8.30
2023-04-27T15:37:46.988Z,8.38
2023-04-27T15:40:16.609Z,18.33
2023-04-27T15:42:44.750Z,10.73
2023-04-27T15:45:12.980Z,6.95
2023-04-27T15:47:41.298Z,10.20
2023-04-27T15:50:09.624Z,11.48
2023-04-27T15:52:38.119Z,11.32
2023-04-27T15:55:06.852Z,10.70
2023-04-27T15:57:36.322Z,11.77
2023-04-27T16:00:10.242Z,9.32
2023-04-27T16:02:40.399Z,13.10
2023-04-27T16:05:10.022Z,13.40
2023-04-27T16:07:40.325Z,14.98
2023-04-27T16:10:09.767Z,14.38
2023-04-27T16:12:39.289Z,17.02
2023-04-27T16:15:10.974Z,37.63
2023-04-27T16:17:39.905Z,71.80
2023-04-27T16:20:09.565Z,85.18
2023-04-27T16:22:38.441Z,29.98
2023-04-27T16:25:10.653Z,24.55
2023-04-27T16:27:40.926Z,17.38
2023-04-27T16:30:09.740Z,15.80
2023-04-27T16:32:38.637Z,12.15
2023-04-27T16:35:07.755Z,17.58
2023-04-27T16:37:35.973Z,17.08
2023-04-27T16:40:07.758Z,15.30
2023-04-27T16:42:36.051Z,12.52
2023-04-27T16:45:08.395Z,13.52
2023-04-27T16:47:38.242Z,16.33
2023-04-27T16:50:06.867Z,14.30
2023-04-27T16:52:34.976Z,17.10
2023-04-27T16:55:03.075Z,15.75
2023-04-27T16:57:31.331Z,15.15
2023-04-27T16:59:59.409Z,18.98
2023-04-27T17:02:28.952Z,16.70
2023-04-27T17:04:59.481Z,13.32
2023-04-27T17:07:32.630Z,14.80
2023-04-27T17:10:00.983Z,14.57
2023-04-27T17:12:29.019Z,14.05
2023-04-27T17:14:57.118Z,14.02
2023-04-27T17:17:25.404Z,18.50
2023-04-27T17:19:54.866Z,17.17
2023-04-27T17:22:22.906Z,14.32
2023-04-27T17:24:51.219Z,18.77
2023-04-27T17:27:19.747Z,13.43
2023-04-27T17:29:48.041Z,15.60
2023-04-27T17:32:16.468Z,17.13
2023-04-27T17:34:45.307Z,15.27
2023-04-27T17:37:15.535Z,15.35
2023-04-27T17:39:43.736Z,16.35
2023-04-27T17:42:12.669Z,14.98
2023-04-27T17:44:42.451Z,13.20
2023-04-27T17:47:10.871Z,19.85
2023-04-27T17:49:39.064Z,13.55
2023-04-27T17:52:07.223Z,16.77
2023-04-27T17:54:36.692Z,15.20
2023-04-27T17:57:05.123Z,13.82
2023-04-27T17:59:33.214Z,14.35
2023-04-27T18:02:01.282Z,20.85
2023-04-27T18:04:29.712Z,16.50
2023-04-27T18:06:57.959Z,18.35
2023-04-27T18:09:27.088Z,14.85
2023-04-27T18:11:56.519Z,19.33
2023-04-27T18:14:24.607Z,17.25
2023-04-27T18:16:52.737Z,17.52
2023-04-27T18:19:21.045Z,15.93
2023-04-27T18:21:49.083Z,18.27
2023-04-27T18:24:17.249Z,18.13
2023-04-27T18:26:45.444Z,14.40
2023-04-27T18:29:15.229Z,14.68
2023-04-27T18:31:43.581Z,17.63
2023-04-27T18:34:11.854Z,13.02
2023-04-27T18:36:39.884Z,18.42
2023-04-27T18:39:08.010Z,20.75
2023-04-27T18:41:36.064Z,16.02
2023-04-27T18:44:05.778Z,16.95
2023-04-27T18:46:35.299Z,18.27
2023-04-27T18:49:03.708Z,15.18
2023-04-27T18:51:32.167Z,15.82
2023-04-27T18:54:00.451Z,16.58
2023-04-27T18:56:28.493Z,21.38
2023-04-27T18:58:56.541Z,16.13
2023-04-27T19:01:25.794Z,14.38
2023-04-27T19:03:55.992Z,14.90
2023-04-27T19:06:24.203Z,14.57
2023-04-27T19:08:52.276Z,13.63
2023-04-27T19:11:22.478Z,14.80
2023-04-27T19:13:51.809Z,14.43
2023-04-27T19:16:19.984Z,16.20
2023-04-27T19:18:48.163Z,17.75
2023-04-27T19:21:17.787Z,16.15
2023-04-27T19:23:45.924Z,19.83
2023-04-27T19:26:14.493Z,14.98
2023-04-27T19:28:42.725Z,16.02
2023-04-27T19:31:10.975Z,18.50
2023-04-27T19:33:46.734Z,11.52
2023-04-27T19:36:15.389Z,13.50
2023-04-27T19:38:44.862Z,10.70
2023-04-27T19:41:14.049Z,10.68
2023-04-27T19:43:42.285Z,10.23
2023-04-27T19:46:10.494Z,11.57
2023-04-27T19:48:38.918Z,9.88
2023-04-27T19:51:10.386Z,11.82
2023-04-27T19:53:38.662Z,12.95
2023-04-27T19:56:08.102Z,11.52
2023-04-27T19:58:37.338Z,11.98
2023-04-27T20:01:06.289Z,9.75
2023-04-27T20:03:35.715Z,13.30
2023-04-27T20:06:04.323Z,12.10
2023-04-27T20:08:34.123Z,12.02
2023-04-27T20:11:02.298Z,11.85
2023-04-27T20:13:31.731Z,15.00
2023-04-27T20:15:59.787Z,13.30
2023-04-27T20:18:31.569Z,17.20
2023-04-27T20:20:59.753Z,12.07
2023-04-27T20:23:27.724Z,12.88
2023-04-27T20:25:55.863Z,15.02
2023-04-27T20:28:23.984Z,15.02
2023-04-27T20:30:53.411Z,13.63
2023-04-27T20:33:21.479Z,15.88
2023-04-27T20:35:49.622Z,14.65
2023-04-27T20:38:17.691Z,16.20
2023-04-27T20:40:45.889Z,13.13
2023-04-27T20:43:14.808Z,16.77
2023-04-27T20:45:43.312Z,15.07
2023-04-27T20:48:13.371Z,20.88
2023-04-27T20:50:41.619Z,17.02
2023-04-27T20:53:09.770Z,15.30
2023-04-27T20:55:38.286Z,16.10
2023-04-27T20:58:06.400Z,16.38
2023-04-27T21:00:34.503Z,20.23
2023-04-27T21:03:02.688Z,20.17
2023-04-27T21:05:32.269Z,15.98
2023-04-27T21:08:00.447Z,19.80
2023-04-27T21:10:28.608Z,18.27
2023-04-27T21:12:57.045Z,16.70
2023-04-27T21:15:25.282Z,15.70
2023-04-27T21:17:53.312Z,16.90
2023-04-27T21:20:21.442Z,18.48
2023-04-27T21:22:50.860Z,13.75
2023-04-27T21:25:19.248Z,14.30
2023-04-27T21:27:47.697Z,16.38
2023-04-27T21:30:16.521Z,16.65
2023-04-27T21:32:44.657Z,16.02
2023-04-27T21:35:12.831Z,15.27
2023-04-27T21:37:41.029Z,13.90
2023-04-27T21:40:11.326Z,17.85
2023-04-27T21:42:40.886Z,15.45
2023-04-27T21:45:09.981Z,16.20
2023-04-27T21:47:38.493Z,13.10
2023-04-27T21:50:08.362Z,16.20
2023-04-27T21:52:36.490Z,13.77
2023-04-27T21:55:05.437Z,12.13
2023-04-27T21:57:34.950Z,11.80
2023-04-27T22:00:08.661Z,10.57
2023-04-27T22:02:46.106Z,13.00
2023-04-27T22:05:14.311Z,11.13
2023-04-27T22:07:43.049Z,10.32
2023-04-27T22:10:11.625Z,10.63
2023-04-27T22:12:41.020Z,11.77
2023-04-27T22:15:09.947Z,9.23
2023-04-27T22:17:39.615Z,12.65
2023-04-27T22:20:11.173Z,9.85
2023-04-27T22:22:39.470Z,10.35
2023-04-27T22:25:08.480Z,8.07
2023-04-27T22:27:44.623Z,7.82
2023-04-27T22:30:16.119Z,9.50
2023-04-27T22:32:44.947Z,8.80
2023-04-27T22:35:24.685Z,11.05
2023-04-27T22:37:55.841Z,7.15
2023-04-27T22:40:25.452Z,9.27
2023-04-27T22:42:53.746Z,9.20
2023-04-27T22:45:23.418Z,9.07
2023-04-27T22:47:51.865Z,9.98
2023-04-27T22:50:20.031Z,11.25
2023-04-27T22:52:48.352Z,10.38
2023-04-27T22:55:16.688Z,12.82
2023-04-27T22:57:45.071Z,10.25
2023-04-27T23:00:13.695Z,9.43
2023-04-27T23:02:43.725Z,7.93
2023-04-27T23:05:12.407Z,8.05
2023-04-27T23:07:42.930Z,9.25
2023-04-27T23:10:12.982Z,9.27
2023-04-27T23:12:41.694Z,8.75
2023-04-27T23:15:10.305Z,13.00
2023-04-27T23:17:38.511Z,10.95
2023-04-27T23:20:16.899Z,10.55
2023-04-27T23:22:55.183Z,8.02
2023-04-27T23:25:23.281Z,9.15
2023-04-27T23:27:52.552Z,8.45
2023-04-27T23:30:21.404Z,8.88
2023-04-27T23:32:49.598Z,10.88
2023-04-27T23:35:19.250Z,12.32
2023-04-27T23:37:47.369Z,12.15
2023-04-27T23:40:15.506Z,14.35
2023-04-27T23:42:43.573Z,13.60
2023-04-27T23:45:12.245Z,10.52
2023-04-27T23:47:40.347Z,13.90
2023-04-27T23:50:09.149Z,13.60
2023-04-27T23:52:38.544Z,13.90
2023-04-27T23:55:07.451Z,15.48
2023-04-27T23:57:35.590Z,10.70
